createdAt,value
2022-12-01T00:00:06.276Z,0.00
2022-12-01T00:01:06.245Z,0.00
2022-12-01T00:02:06.352Z,0.00
2022-12-01T00:03:06.286Z,0.00
2022-12-01T00:04:06.406Z,0.00
2022-12-01T00:05:06.193Z,0.00
2022-12-01T00:06:06.212Z,0.00
2022-12-01T00:07:06.170Z,0.00
2022-12-01T00:08:06.239Z,0.00
2022-12-01T00:09:06.321Z,0.00
2022-12-01T00:10:06.201Z,0.00
2022-12-01T00:11:06.120Z,0.00
2022-12-01T00:12:06.139Z,0.00
2022-12-01T00:13:06.098Z,0.00
2022-12-01T00:14:06.119Z,0.00
2022-12-01T00:15:06.248Z,0.00
2022-12-01T00:16:06.118Z,0.00
2022-12-01T00:17:06.070Z,0.00
2022-12-01T00:18:06.049Z,0.00
2022-12-01T00:19:06.196Z,0.00
2022-12-01T00:20:06.047Z,0.00
2022-12-01T00:21:05.994Z,0.00
2022-12-01T00:22:06.011Z,0.00
2022-12-01T00:23:05.975Z,0.00
2022-12-01T00:24:06.150Z,0.00
2022-12-01T00:25:05.942Z,0.00
2022-12-01T00:26:05.949Z,0.00
2022-12-01T00:27:05.919Z,0.00
2022-12-01T00:28:06.879Z,0.00
2022-12-01T00:29:06.069Z,0.00
2022-12-01T00:30:06.750Z,0.00
2022-12-01T00:31:05.911Z,0.00
2022-12-01T00:32:05.896Z,0.00
2022-12-01T00:33:05.848Z,0.00
2022-12-01T00:34:10.979Z,0.00
2022-12-01T00:35:06.816Z,0.00
2022-12-01T00:36:05.836Z,0.00
2022-12-01T00:37:05.796Z,0.00
2022-12-01T00:38:05.856Z,0.00
2022-12-01T00:39:05.945Z,0.00
2022-12-01T00:40:05.871Z,0.00
2022-12-01T00:41:05.743Z,0.00
2022-12-01T00:42:10.129Z,0.00
2022-12-01T00:43:06.712Z,0.00
2022-12-01T00:44:05.892Z,0.00
2022-12-01T00:45:05.693Z,0.00
2022-12-01T00:46:05.752Z,0.00
2022-12-01T00:47:05.740Z,0.00
2022-12-01T00:48:05.674Z,0.00
2022-12-01T00:49:05.810Z,0.00
2022-12-01T00:50:05.760Z,0.00
2022-12-01T00:51:05.619Z,0.00
2022-12-01T00:52:05.643Z,0.00
2022-12-01T00:53:05.588Z,0.00
2022-12-01T00:54:05.879Z,0.00
2022-12-01T00:55:05.575Z,0.00
2022-12-01T00:56:05.574Z,0.00
2022-12-01T00:57:05.544Z,0.00
2022-12-01T00:58:05.545Z,0.00
2022-12-01T00:59:05.696Z,0.00
2022-12-01T01:00:05.533Z,0.00
2022-12-01T01:01:05.577Z,0.00
2022-12-01T01:02:05.588Z,0.00
2022-12-01T01:03:05.470Z,0.00
2022-12-01T01:04:05.650Z,0.00
2022-12-01T01:05:05.443Z,0.00
2022-12-01T01:06:05.440Z,0.00
2022-12-01T01:07:05.409Z,0.00
2022-12-01T01:08:05.453Z,0.00
2022-12-01T01:09:05.558Z,0.00
2022-12-01T01:10:05.410Z,0.00
2022-12-01T01:11:05.422Z,0.00
2022-12-01T01:12:05.370Z,0.00
2022-12-01T01:13:05.345Z,0.00
2022-12-01T01:14:05.556Z,0.00
2022-12-01T01:15:05.307Z,0.00
2022-12-01T01:16:05.337Z,0.00
2022-12-01T01:17:05.301Z,0.00
2022-12-01T01:18:05.514Z,0.00
2022-12-01T01:19:05.263Z,0.00
2022-12-01T01:20:05.273Z,0.00
2022-12-01T01:21:05.363Z,0.00
2022-12-01T01:22:05.251Z,0.00
2022-12-01T01:23:05.674Z,0.00
2022-12-01T01:24:05.222Z,0.00
2022-12-01T01:25:05.180Z,0.00
2022-12-01T01:26:05.201Z,0.00
2022-12-01T01:27:05.158Z,0.00
2022-12-01T01:28:05.610Z,0.00
2022-12-01T01:29:05.128Z,0.00
2022-12-01T01:30:05.127Z,0.00
2022-12-01T01:31:05.131Z,0.00
2022-12-01T01:32:05.105Z,0.00
2022-12-01T01:33:05.246Z,0.00
2022-12-01T01:34:05.254Z,0.00
2022-12-01T01:35:05.052Z,0.00
2022-12-01T01:36:06.014Z,0.00
2022-12-01T01:37:05.035Z,0.00
2022-12-01T01:38:05.037Z,0.00
2022-12-01T01:39:05.174Z,0.00
2022-12-01T01:40:05.001Z,0.00
2022-12-01T01:41:04.970Z,0.00
2022-12-01T01:42:05.006Z,0.00
2022-12-01T01:43:05.120Z,0.00
2022-12-01T01:44:05.153Z,0.00
2022-12-01T01:45:04.919Z,0.00
2022-12-01T01:46:04.995Z,0.00
2022-12-01T01:47:04.909Z,0.00
2022-12-01T01:48:05.076Z,0.00
2022-12-01T01:49:05.028Z,0.00
2022-12-01T01:50:04.876Z,0.00
2022-12-01T01:51:04.846Z,0.00
2022-12-01T01:52:04.844Z,0.00
2022-12-01T01:53:05.079Z,0.00
2022-12-01T01:54:04.823Z,0.00
2022-12-01T01:55:04.790Z,0.00
2022-12-01T01:56:04.832Z,0.00
2022-12-01T01:57:04.762Z,0.00
2022-12-01T01:58:04.802Z,0.00
2022-12-01T01:59:05.851Z,0.00
2022-12-01T02:00:04.751Z,0.00
2022-12-01T02:01:04.749Z,0.00
2022-12-01T02:02:04.786Z,0.00
2022-12-01T02:03:04.871Z,0.00
2022-12-01T02:04:04.794Z,0.00
2022-12-01T02:05:04.661Z,0.00
2022-12-01T02:06:05.294Z,0.00
2022-12-01T02:07:04.647Z,0.00
2022-12-01T02:08:04.892Z,0.00
2022-12-01T02:09:05.535Z,0.00
2022-12-01T02:10:05.285Z,0.00
2022-12-01T02:11:04.592Z,0.00
2022-12-01T02:12:04.634Z,0.00
2022-12-01T02:13:04.753Z,0.00
2022-12-01T02:14:04.579Z,0.00
2022-12-01T02:15:04.552Z,0.00
2022-12-01T02:16:04.522Z,0.00
2022-12-01T02:17:04.629Z,0.00
2022-12-01T02:18:04.850Z,0.00
2022-12-01T02:19:04.508Z,0.00
2022-12-01T02:20:04.467Z,0.00
2022-12-01T02:21:04.500Z,0.00
2022-12-01T02:22:04.530Z,0.00
2022-12-01T02:23:04.648Z,0.00
2022-12-01T02:24:04.417Z,0.00
2022-12-01T02:25:04.417Z,0.00
2022-12-01T02:26:04.387Z,0.00
2022-12-01T02:27:04.467Z,0.00
2022-12-01T02:28:04.536Z,0.00
2022-12-01T02:29:04.393Z,0.00
2022-12-01T02:30:04.334Z,0.00
2022-12-01T02:31:04.415Z,0.00
2022-12-01T02:32:04.391Z,0.00
2022-12-01T02:33:04.492Z,0.00
2022-12-01T02:34:04.284Z,0.00
2022-12-01T02:35:04.281Z,0.00
2022-12-01T02:36:04.261Z,0.00
2022-12-01T02:37:04.369Z,0.00
2022-12-01T02:38:04.411Z,0.00
2022-12-01T02:39:04.239Z,0.00
2022-12-01T02:40:04.325Z,0.00
2022-12-01T02:41:04.207Z,0.00
2022-12-01T02:42:04.306Z,0.00
2022-12-01T02:43:04.357Z,0.00
2022-12-01T02:44:04.157Z,0.00
2022-12-01T02:45:04.165Z,0.00
2022-12-01T02:46:04.150Z,0.00
2022-12-01T02:47:04.212Z,0.00
2022-12-01T02:48:04.284Z,0.00
2022-12-01T02:49:04.116Z,0.00
2022-12-01T02:50:04.074Z,0.00
2022-12-01T02:51:04.823Z,0.00
2022-12-01T02:52:05.552Z,0.00
2022-12-01T02:53:04.221Z,0.00
2022-12-01T02:54:04.070Z,0.00
2022-12-01T02:55:04.039Z,0.00
2022-12-01T02:56:04.967Z,0.00
2022-12-01T02:57:04.117Z,0.00
2022-12-01T02:58:04.148Z,0.00
2022-12-01T02:59:03.989Z,0.00
2022-12-01T03:00:04.011Z,0.00
2022-12-01T03:01:03.971Z,0.00
2022-12-01T03:02:03.927Z,0.00
2022-12-01T03:03:03.988Z,0.00
2022-12-01T03:04:04.066Z,0.00
2022-12-01T03:05:03.907Z,0.00
2022-12-01T03:06:03.945Z,0.00
2022-12-01T03:07:03.878Z,0.00
2022-12-01T03:08:03.870Z,0.00
2022-12-01T03:09:03.881Z,0.00
2022-12-01T03:10:03.826Z,0.00
2022-12-01T03:11:03.839Z,0.00
2022-12-01T03:12:03.792Z,0.00
2022-12-01T03:13:03.813Z,0.00
2022-12-01T03:14:04.918Z,0.00
2022-12-01T03:15:03.759Z,0.00
2022-12-01T03:16:03.855Z,0.00
2022-12-01T03:17:03.727Z,0.00
2022-12-01T03:18:03.792Z,0.00
2022-12-01T03:19:03.869Z,0.00
2022-12-01T03:20:03.720Z,0.00
2022-12-01T03:21:03.679Z,0.00
2022-12-01T03:22:03.696Z,0.00
2022-12-01T03:23:03.766Z,0.00
2022-12-01T03:24:03.830Z,0.00
2022-12-01T03:25:03.624Z,0.00
2022-12-01T03:26:03.644Z,0.00
2022-12-01T03:27:04.443Z,0.00
2022-12-01T03:29:05.512Z,0.00
2022-12-01T03:30:03.579Z,0.00
2022-12-01T03:31:03.585Z,0.00
2022-12-01T03:32:03.560Z,0.00
2022-12-01T03:33:03.521Z,0.00
2022-12-01T03:34:03.700Z,0.00
2022-12-01T03:35:03.489Z,0.00
2022-12-01T03:36:03.498Z,0.00
2022-12-01T03:37:04.300Z,0.00
2022-12-01T03:38:03.476Z,0.00
2022-12-01T03:39:03.624Z,0.00
2022-12-01T03:40:03.458Z,0.00
2022-12-01T03:41:03.414Z,0.00
2022-12-01T03:42:03.424Z,0.00
2022-12-01T03:43:03.394Z,0.00
2022-12-01T03:44:03.405Z,0.00
2022-12-01T03:45:03.536Z,0.00
2022-12-01T03:46:03.437Z,0.00
2022-12-01T03:47:03.332Z,0.00
2022-12-01T03:48:03.365Z,0.00
2022-12-01T03:49:03.312Z,0.00
2022-12-01T03:50:03.500Z,0.00
2022-12-01T03:51:04.146Z,0.00
2022-12-01T03:52:03.299Z,0.00
2022-12-01T03:53:03.259Z,0.00
2022-12-01T03:54:03.268Z,0.00
2022-12-01T03:55:03.408Z,0.00
2022-12-01T03:56:03.248Z,0.00
2022-12-01T03:57:03.215Z,0.00
2022-12-01T03:58:03.224Z,0.00
2022-12-01T03:59:03.189Z,0.00
2022-12-01T04:00:03.374Z,0.00
2022-12-01T04:01:03.201Z,0.00
2022-12-01T04:02:03.223Z,0.00
2022-12-01T04:03:03.257Z,0.00
2022-12-01T04:04:03.154Z,0.00
2022-12-01T04:05:04.333Z,0.00
2022-12-01T04:06:03.132Z,0.00
2022-12-01T04:07:03.081Z,0.00
2022-12-01T04:08:03.264Z,0.00
2022-12-01T04:09:03.060Z,0.00
2022-12-01T04:10:03.250Z,0.00
2022-12-01T04:11:03.030Z,0.00
2022-12-01T04:12:03.040Z,0.00
2022-12-01T04:13:03.138Z,0.00
2022-12-01T04:14:03.013Z,0.00
2022-12-01T04:15:03.170Z,0.00
2022-12-01T04:16:03.109Z,0.00
2022-12-01T04:17:02.957Z,0.00
2022-12-01T04:18:02.985Z,0.00
2022-12-01T04:19:02.934Z,0.00
2022-12-01T04:20:03.125Z,0.00
2022-12-01T04:21:03.804Z,0.00
2022-12-01T04:22:02.987Z,0.00
2022-12-01T04:23:02.882Z,0.00
2022-12-01T04:24:02.914Z,0.00
2022-12-01T04:25:02.859Z,0.00
2022-12-01T04:26:03.089Z,0.00
2022-12-01T04:27:02.918Z,0.00
2022-12-01T04:28:02.830Z,0.00
2022-12-01T04:29:03.541Z,0.00
2022-12-01T04:30:02.807Z,0.00
2022-12-01T04:31:03.269Z,0.00
2022-12-01T04:32:02.785Z,0.00
2022-12-01T04:33:02.754Z,0.00
2022-12-01T04:34:02.766Z,0.00
2022-12-01T04:35:03.601Z,0.00
2022-12-01T04:36:03.683Z,0.00
2022-12-01T04:37:02.706Z,0.00
2022-12-01T04:38:02.723Z,0.00
2022-12-01T04:39:02.684Z,0.00
2022-12-01T04:40:03.108Z,0.00
2022-12-01T04:41:02.656Z,0.00
2022-12-01T04:42:02.652Z,0.00
2022-12-01T04:43:02.736Z,0.00
2022-12-01T04:44:02.648Z,0.00
2022-12-01T04:45:02.779Z,0.00
2022-12-01T04:46:02.609Z,0.00
2022-12-01T04:47:02.694Z,0.00
2022-12-01T04:48:02.591Z,0.00
2022-12-01T04:49:02.558Z,0.00
2022-12-01T04:50:02.740Z,0.00
2022-12-01T04:51:02.527Z,0.00
2022-12-01T04:52:02.546Z,0.00
2022-12-01T04:53:02.496Z,0.00
2022-12-01T04:54:03.235Z,0.00
2022-12-01T04:55:02.645Z,0.00
2022-12-01T04:56:02.474Z,0.00
2022-12-01T04:57:02.574Z,0.00
2022-12-01T04:58:02.453Z,0.00
2022-12-01T04:59:02.443Z,0.00
2022-12-01T05:00:02.602Z,0.00
2022-12-01T05:01:02.434Z,0.00
2022-12-01T05:02:02.482Z,0.00
2022-12-01T05:03:02.400Z,0.00
2022-12-01T05:04:02.390Z,0.00
2022-12-01T05:05:02.636Z,0.00
2022-12-01T05:06:02.371Z,0.00
2022-12-01T05:07:03.077Z,0.00
2022-12-01T05:08:02.363Z,0.00
2022-12-01T05:09:02.296Z,0.00
2022-12-01T05:10:02.526Z,0.00
2022-12-01T05:11:02.266Z,0.00
2022-12-01T05:12:02.307Z,0.00
2022-12-01T05:13:02.290Z,0.00
2022-12-01T05:14:02.265Z,0.00
2022-12-01T05:15:02.393Z,0.00
2022-12-01T05:16:02.262Z,0.00
2022-12-01T05:17:02.255Z,0.00
2022-12-01T05:18:03.057Z,0.00
2022-12-01T05:19:02.171Z,0.00
2022-12-01T05:20:02.355Z,0.00
2022-12-01T05:21:02.141Z,0.00
2022-12-01T05:22:02.159Z,0.00
2022-12-01T05:23:06.203Z,0.00
2022-12-01T05:24:02.131Z,0.00
2022-12-01T05:25:02.331Z,0.00
2022-12-01T05:26:02.110Z,0.00
2022-12-01T05:27:02.088Z,0.00
2022-12-01T05:28:10.945Z,0.00
2022-12-01T05:29:02.057Z,0.00
2022-12-01T05:30:02.226Z,0.00
2022-12-01T05:31:03.858Z,0.00
2022-12-01T05:32:02.117Z,0.00
2022-12-01T05:33:02.014Z,0.00
2022-12-01T05:34:02.017Z,0.00
2022-12-01T05:35:02.153Z,0.00
2022-12-01T05:36:01.972Z,0.00
2022-12-01T05:37:01.979Z,0.00
2022-12-01T05:38:07.363Z,0.00
2022-12-01T05:39:02.921Z,0.00
2022-12-01T05:40:02.143Z,0.00
2022-12-01T05:41:01.891Z,0.00
2022-12-01T05:42:01.901Z,0.00
2022-12-01T05:43:01.867Z,0.00
2022-12-01T05:44:01.869Z,0.00
2022-12-01T05:45:02.034Z,0.00
2022-12-01T05:46:01.893Z,0.00
2022-12-01T05:47:01.827Z,0.00
2022-12-01T05:48:01.861Z,0.00
2022-12-01T05:49:01.797Z,0.00
2022-12-01T05:50:05.559Z,0.00
2022-12-01T05:51:01.777Z,0.00
2022-12-01T05:52:01.812Z,0.00
2022-12-01T05:53:01.745Z,0.00
2022-12-01T05:54:01.749Z,0.00
2022-12-01T05:55:01.925Z,0.00
2022-12-01T05:56:01.723Z,0.00
2022-12-01T05:57:01.702Z,0.00
2022-12-01T05:58:01.702Z,0.00
2022-12-01T05:59:01.664Z,0.00
2022-12-01T06:00:01.860Z,0.00
2022-12-01T06:01:01.669Z,0.00
2022-12-01T06:02:01.695Z,0.00
2022-12-01T06:03:01.617Z,0.00
2022-12-01T06:04:01.700Z,0.00
2022-12-01T06:05:01.785Z,0.00
2022-12-01T06:06:01.608Z,0.00
2022-12-01T06:07:01.567Z,0.00
2022-12-01T06:08:01.635Z,0.00
2022-12-01T06:09:01.548Z,0.00
2022-12-01T06:10:01.752Z,0.00
2022-12-01T06:11:01.514Z,0.00
2022-12-01T06:12:01.520Z,0.00
2022-12-01T06:13:01.491Z,0.00
2022-12-01T06:14:01.694Z,0.00
2022-12-01T06:15:01.470Z,0.00
2022-12-01T06:16:01.494Z,0.00
2022-12-01T06:17:01.493Z,0.00
2022-12-01T06:18:01.440Z,0.00
2022-12-01T06:19:01.590Z,0.00
2022-12-01T06:20:01.418Z,0.00
2022-12-01T06:21:01.392Z,0.00
2022-12-01T06:22:01.417Z,0.00
2022-12-01T06:23:01.549Z,0.00
2022-12-01T06:24:01.555Z,0.00
2022-12-01T06:25:01.343Z,0.00
2022-12-01T06:26:01.299Z,1.00
2022-12-01T06:27:01.319Z,0.00
2022-12-01T06:28:01.296Z,1.00
2022-12-01T06:29:01.583Z,1.00
2022-12-01T06:30:01.321Z,0.00
2022-12-01T06:31:03.496Z,0.00
2022-12-01T06:32:01.265Z,2.00
2022-12-01T06:33:01.183Z,1.00
2022-12-01T06:34:01.419Z,0.00
2022-12-01T06:35:01.189Z,1.00
2022-12-01T06:36:01.160Z,1.00
2022-12-01T06:37:01.181Z,0.00
2022-12-01T06:38:01.165Z,2.00
2022-12-01T06:39:01.282Z,1.00
2022-12-01T06:40:01.121Z,1.00
2022-12-01T06:41:01.078Z,5.00
2022-12-01T06:42:01.087Z,6.00
2022-12-01T06:43:01.057Z,5.00
2022-12-01T06:44:01.237Z,5.00
2022-12-01T06:45:01.026Z,2.00
2022-12-01T06:46:02.422Z,7.00
2022-12-01T06:47:01.007Z,11.00
2022-12-01T06:48:01.014Z,11.00
2022-12-01T06:49:01.154Z,10.00
2022-12-01T06:50:01.005Z,7.00
2022-12-01T06:51:00.961Z,6.00
2022-12-01T06:52:01.269Z,9.00
2022-12-01T06:53:00.965Z,12.00
2022-12-01T06:54:05.398Z,13.00
2022-12-01T06:55:00.900Z,13.00
2022-12-01T06:56:00.925Z,14.00
2022-12-01T06:57:00.878Z,17.00
2022-12-01T06:58:00.890Z,23.00
2022-12-01T06:59:01.029Z,22.00
2022-12-01T07:00:00.863Z,22.00
2022-12-01T07:01:00.965Z,21.00
2022-12-01T07:02:00.887Z,22.00
2022-12-01T07:03:00.862Z,22.00
2022-12-01T07:04:00.995Z,28.00
2022-12-01T07:05:00.785Z,29.00
2022-12-01T07:06:00.795Z,28.00
2022-12-01T07:07:00.763Z,38.00
2022-12-01T07:08:00.793Z,35.00
2022-12-01T07:09:00.919Z,36.00
2022-12-01T07:10:00.733Z,32.00
2022-12-01T07:11:00.708Z,28.00
2022-12-01T07:12:00.709Z,29.00
2022-12-01T07:13:00.679Z,27.00
2022-12-01T07:14:00.870Z,36.00
2022-12-01T07:15:00.649Z,42.00
2022-12-01T07:16:00.671Z,45.00
2022-12-01T07:17:00.747Z,51.00
2022-12-01T07:18:00.655Z,57.00
2022-12-01T07:19:00.781Z,53.00
2022-12-01T07:20:00.617Z,55.00
2022-12-01T07:21:00.568Z,45.00
2022-12-01T07:22:00.598Z,54.00
2022-12-01T07:23:00.559Z,49.00
2022-12-01T07:24:00.748Z,55.00
2022-12-01T07:25:00.535Z,74.00
2022-12-01T07:26:00.535Z,82.00
2022-12-01T07:27:00.504Z,93.00
2022-12-01T07:28:00.493Z,85.00
2022-12-01T07:29:00.694Z,89.00
2022-12-01T07:30:00.481Z,84.00
2022-12-01T07:31:00.513Z,89.00
2022-12-01T07:32:00.441Z,108.00
2022-12-01T07:33:00.687Z,128.00
2022-12-01T07:34:00.590Z,139.00
2022-12-01T07:35:00.420Z,156.00
2022-12-01T07:36:00.402Z,151.00
2022-12-01T07:37:00.386Z,112.00
2022-12-01T07:38:00.369Z,116.00
2022-12-01T07:39:00.554Z,105.00
2022-12-01T07:40:00.337Z,103.00
2022-12-01T07:41:00.354Z,101.00
2022-12-01T07:42:00.308Z,108.00
2022-12-01T07:43:00.321Z,119.00
2022-12-01T07:44:00.454Z,149.00
2022-12-01T07:45:00.283Z,180.00
2022-12-01T07:46:00.298Z,194.00
2022-12-01T07:47:00.273Z,205.00
2022-12-01T07:48:00.231Z,207.00
2022-12-01T07:49:00.414Z,178.00
2022-12-01T07:50:00.211Z,134.00
2022-12-01T07:51:00.219Z,140.00
2022-12-01T07:52:00.201Z,150.00
2022-12-01T07:53:00.198Z,177.00
2022-12-01T07:54:00.338Z,195.00
2022-12-01T07:55:00.178Z,204.00
2022-12-01T07:56:04.221Z,198.00
2022-12-01T07:57:01.127Z,208.00
2022-12-01T07:58:00.096Z,188.00
2022-12-01T07:59:00.304Z,171.00
2022-12-01T08:00:00.081Z,204.00
2022-12-01T08:01:00.164Z,197.00
2022-12-01T08:02:00.204Z,173.00
2022-12-01T08:03:00.119Z,173.00
2022-12-01T08:04:00.208Z,193.00
2022-12-01T08:05:00.031Z,166.00
2022-12-01T08:06:00.012Z,145.00
2022-12-01T08:07:00.012Z,169.00
2022-12-01T08:08:00.056Z,189.00
2022-12-01T08:09:00.163Z,239.00
2022-12-01T08:09:59.949Z,205.00
2022-12-01T08:10:59.970Z,228.00
2022-12-01T08:11:59.928Z,205.00
2022-12-01T08:12:59.941Z,213.00
2022-12-01T08:14:00.077Z,262.00
2022-12-01T08:14:59.923Z,256.00
2022-12-01T08:15:59.935Z,214.00
2022-12-01T08:16:59.886Z,185.00
2022-12-01T08:17:59.888Z,171.00
2022-12-01T08:19:00.045Z,169.00
2022-12-01T08:19:59.833Z,207.00
2022-12-01T08:20:59.831Z,269.00
2022-12-01T08:21:59.809Z,317.00
2022-12-01T08:22:59.812Z,335.00
2022-12-01T08:23:59.951Z,338.00
2022-12-01T08:24:59.780Z,370.00
2022-12-01T08:26:00.029Z,345.00
2022-12-01T08:26:59.761Z,367.00
2022-12-01T08:27:59.740Z,376.00
2022-12-01T08:28:59.929Z,386.00
2022-12-01T08:29:59.714Z,350.00
2022-12-01T08:30:59.767Z,370.00
2022-12-01T08:31:59.677Z,417.00
2022-12-01T08:32:59.705Z,430.00
2022-12-01T08:33:59.844Z,433.00
2022-12-01T08:34:59.665Z,432.00
2022-12-01T08:35:59.625Z,412.00
2022-12-01T08:36:59.634Z,393.00
2022-12-01T08:37:59.775Z,409.00
2022-12-01T08:38:59.614Z,399.00
2022-12-01T08:39:59.585Z,408.00
2022-12-01T08:40:59.592Z,397.00
2022-12-01T08:41:59.562Z,378.00
2022-12-01T08:42:59.741Z,426.00
2022-12-01T08:44:00.355Z,456.00
2022-12-01T08:44:59.623Z,424.00
2022-12-01T08:45:59.526Z,414.00
2022-12-01T08:46:59.612Z,413.00
2022-12-01T08:47:59.649Z,462.00
2022-12-01T08:48:59.477Z,497.00
2022-12-01T08:49:59.447Z,505.00
2022-12-01T08:50:59.448Z,502.00
2022-12-01T08:51:59.439Z,510.00
2022-12-01T08:52:59.618Z,506.00
2022-12-01T08:53:59.395Z,503.00
2022-12-01T08:54:59.414Z,506.00
2022-12-01T08:55:59.375Z,483.00
2022-12-01T08:56:59.373Z,474.00
2022-12-01T08:57:59.523Z,447.00
2022-12-01T08:58:59.371Z,458.00
2022-12-01T08:59:59.321Z,481.00
2022-12-01T09:00:59.328Z,499.00
2022-12-01T09:02:02.531Z,484.00
2022-12-01T09:03:00.511Z,480.00
2022-12-01T09:03:59.272Z,469.00
2022-12-01T09:04:59.280Z,481.00
2022-12-01T09:05:59.254Z,506.00
2022-12-01T09:06:59.259Z,508.00
2022-12-01T09:07:59.449Z,497.00
2022-12-01T09:08:59.232Z,511.00
2022-12-01T09:09:59.198Z,530.00
2022-12-01T09:10:59.219Z,537.00
2022-12-01T09:11:59.195Z,528.00
2022-12-01T09:12:59.376Z,573.00
2022-12-01T09:13:59.147Z,549.00
2022-12-01T09:14:59.166Z,427.00
2022-12-01T09:15:59.158Z,458.00
2022-12-01T09:16:59.141Z,533.00
2022-12-01T09:17:59.293Z,552.00
2022-12-01T09:18:59.103Z,576.00
2022-12-01T09:19:59.081Z,620.00
2022-12-01T09:20:59.078Z,583.00
2022-12-01T09:21:59.050Z,515.00
2022-12-01T09:22:59.226Z,483.00
2022-12-01T09:23:59.020Z,508.00
2022-12-01T09:24:59.056Z,539.00
2022-12-01T09:25:58.998Z,547.00
2022-12-01T09:26:59.014Z,515.00
2022-12-01T09:27:59.147Z,497.00
2022-12-01T09:28:59.036Z,494.00
2022-12-01T09:29:58.987Z,505.00
2022-12-01T09:30:59.027Z,514.00
2022-12-01T09:31:58.925Z,524.00
2022-12-01T09:32:59.113Z,537.00
2022-12-01T09:33:58.903Z,529.00
2022-12-01T09:34:58.912Z,550.00
2022-12-01T09:35:58.872Z,563.00
2022-12-01T09:36:58.892Z,562.00
2022-12-01T09:37:59.021Z,568.00
2022-12-01T09:38:58.902Z,572.00
2022-12-01T09:39:58.828Z,553.00
2022-12-01T09:40:58.841Z,538.00
2022-12-01T09:41:58.808Z,526.00
2022-12-01T09:42:58.999Z,522.00
2022-12-01T09:43:58.779Z,517.00
2022-12-01T09:44:58.778Z,518.00
2022-12-01T09:45:58.751Z,535.00
2022-12-01T09:46:58.810Z,565.00
2022-12-01T09:47:58.896Z,602.00
2022-12-01T09:48:58.733Z,623.00
2022-12-01T09:49:58.699Z,606.00
2022-12-01T09:50:58.724Z,602.00
2022-12-01T09:51:58.671Z,611.00
2022-12-01T09:52:58.853Z,633.00
2022-12-01T09:53:58.645Z,645.00
2022-12-01T09:54:58.662Z,635.00
2022-12-01T09:56:05.918Z,646.00
2022-12-01T09:56:59.622Z,631.00
2022-12-01T09:57:58.772Z,531.00
2022-12-01T09:58:58.611Z,472.00
2022-12-01T09:59:58.590Z,464.00
2022-12-01T10:00:58.617Z,439.00
2022-12-01T10:01:58.596Z,394.00
2022-12-01T10:02:58.738Z,341.00
2022-12-01T10:03:58.520Z,325.00
2022-12-01T10:04:58.577Z,340.00
2022-12-01T10:06:59.497Z,378.00
2022-12-01T10:07:58.742Z,412.00
2022-12-01T10:08:58.476Z,365.00
2022-12-01T10:09:58.454Z,381.00
2022-12-01T10:10:58.454Z,387.00
2022-12-01T10:11:58.423Z,399.00
2022-12-01T10:12:58.604Z,436.00
2022-12-01T10:13:58.415Z,454.00
2022-12-01T10:14:58.413Z,479.00
2022-12-01T10:15:58.427Z,477.00
2022-12-01T10:16:58.420Z,424.00
2022-12-01T10:17:58.522Z,419.00
2022-12-01T10:18:58.349Z,440.00
2022-12-01T10:19:58.330Z,477.00
2022-12-01T10:20:58.348Z,478.00
2022-12-01T10:21:58.295Z,447.00
2022-12-01T10:22:58.669Z,425.00
2022-12-01T10:23:58.266Z,400.00
2022-12-01T10:24:58.276Z,426.00
2022-12-01T10:25:58.246Z,488.00
2022-12-01T10:26:58.435Z,505.00
2022-12-01T10:27:58.222Z,482.00
2022-12-01T10:28:58.247Z,454.00
2022-12-01T10:29:58.194Z,394.00
2022-12-01T10:30:58.204Z,422.00
2022-12-01T10:31:58.443Z,453.00
2022-12-01T10:32:58.189Z,482.00
2022-12-01T10:33:58.160Z,439.00
2022-12-01T10:34:58.152Z,391.00
2022-12-01T10:35:58.121Z,483.00
2022-12-01T10:36:58.302Z,553.00
2022-12-01T10:37:58.131Z,602.00
2022-12-01T10:38:58.126Z,561.00
2022-12-01T10:39:58.088Z,463.00
2022-12-01T10:40:58.104Z,446.00
2022-12-01T10:41:58.226Z,424.00
2022-12-01T10:42:58.047Z,430.00
2022-12-01T10:43:58.027Z,456.00
2022-12-01T10:44:58.026Z,436.00
2022-12-01T10:45:58.078Z,418.00
2022-12-01T10:46:58.193Z,399.00
2022-12-01T10:47:59.082Z,408.00
2022-12-01T10:48:57.973Z,401.00
2022-12-01T10:49:57.954Z,377.00
2022-12-01T10:50:57.949Z,366.00
2022-12-01T10:51:58.124Z,334.00
2022-12-01T10:52:57.932Z,307.00
2022-12-01T10:53:57.908Z,301.00
2022-12-01T10:54:57.925Z,306.00
2022-12-01T10:55:57.879Z,273.00
2022-12-01T10:56:58.051Z,293.00
2022-12-01T10:57:57.841Z,366.00
2022-12-01T10:58:57.848Z,422.00
2022-12-01T10:59:57.820Z,479.00
2022-12-01T11:01:00.250Z,521.00
2022-12-01T11:01:58.126Z,486.00
2022-12-01T11:02:57.997Z,405.00
2022-12-01T11:03:57.801Z,369.00
2022-12-01T11:04:57.786Z,375.00
2022-12-01T11:05:57.756Z,406.00
2022-12-01T11:06:57.924Z,406.00
2022-12-01T11:07:57.786Z,419.00
2022-12-01T11:08:57.744Z,494.00
2022-12-01T11:09:57.724Z,490.00
2022-12-01T11:10:57.727Z,482.00
2022-12-01T11:11:57.864Z,488.00
2022-12-01T11:12:57.703Z,452.00
2022-12-01T11:13:57.649Z,401.00
2022-12-01T11:14:57.661Z,354.00
2022-12-01T11:15:57.619Z,354.00
2022-12-01T11:16:57.873Z,394.00
2022-12-01T11:17:57.609Z,431.00
2022-12-01T11:18:57.661Z,443.00
2022-12-01T11:19:57.620Z,395.00
2022-12-01T11:20:57.598Z,337.00
2022-12-01T11:21:57.728Z,388.00
2022-12-01T11:22:57.565Z,496.00
2022-12-01T11:23:57.514Z,531.00
2022-12-01T11:24:57.535Z,496.00
2022-12-01T11:25:57.494Z,459.00
2022-12-01T11:26:57.684Z,453.00
2022-12-01T11:27:57.476Z,449.00
2022-12-01T11:29:04.524Z,442.00
2022-12-01T11:29:57.444Z,377.00
2022-12-01T11:30:57.453Z,338.00
2022-12-01T11:31:57.652Z,344.00
2022-12-01T11:32:57.432Z,404.00
2022-12-01T11:33:57.399Z,442.00
2022-12-01T11:34:57.410Z,492.00
2022-12-01T11:35:57.370Z,462.00
2022-12-01T11:36:57.596Z,407.00
2022-12-01T11:38:28.244Z,346.00
2022-12-01T11:38:58.358Z,305.00
2022-12-01T11:39:57.318Z,278.00
2022-12-01T11:40:57.341Z,254.00
2022-12-01T11:41:57.501Z,237.00
2022-12-01T11:42:57.286Z,232.00
2022-12-01T11:44:01.969Z,240.00
2022-12-01T11:44:58.256Z,262.00
2022-12-01T11:45:57.313Z,256.00
2022-12-01T11:47:21.457Z,242.00
2022-12-01T11:47:58.246Z,238.00
2022-12-01T11:48:57.213Z,345.00
2022-12-01T11:49:57.223Z,472.00
2022-12-01T11:50:57.187Z,491.00
2022-12-01T11:51:57.201Z,399.00
2022-12-01T11:52:57.349Z,375.00
2022-12-01T11:53:57.164Z,390.00
2022-12-01T11:54:57.131Z,442.00
2022-12-01T11:55:57.141Z,470.00
2022-12-01T11:57:31.850Z,452.00
2022-12-01T11:57:58.299Z,421.00
2022-12-01T11:58:57.119Z,361.00
2022-12-01T11:59:57.118Z,327.00
2022-12-01T12:00:57.098Z,311.00
2022-12-01T12:01:57.333Z,298.00
2022-12-01T12:02:57.035Z,302.00
2022-12-01T12:03:57.107Z,301.00
2022-12-01T12:04:57.009Z,330.00
2022-12-01T12:06:05.951Z,352.00
2022-12-01T12:06:58.155Z,335.00
2022-12-01T12:07:57.018Z,289.00
2022-12-01T12:08:56.988Z,272.00
2022-12-01T12:09:56.978Z,244.00
2022-12-01T12:10:57.006Z,238.00
2022-12-01T12:11:56.942Z,224.00
2022-12-01T12:12:57.081Z,251.00
2022-12-01T12:13:56.926Z,285.00
2022-12-01T12:14:56.893Z,262.00
2022-12-01T12:15:56.899Z,239.00
2022-12-01T12:16:56.876Z,205.00
2022-12-01T12:17:57.229Z,185.00
2022-12-01T12:18:56.830Z,184.00
2022-12-01T12:20:12.630Z,176.00
2022-12-01T12:20:57.806Z,157.00
2022-12-01T12:21:56.823Z,178.00
2022-12-01T12:22:56.956Z,209.00
2022-12-01T12:23:56.811Z,204.00
2022-12-01T12:24:56.754Z,194.00
2022-12-01T12:25:56.764Z,182.00
2022-12-01T12:26:56.724Z,172.00
2022-12-01T12:27:56.914Z,177.00
2022-12-01T12:28:56.719Z,184.00
2022-12-01T12:29:56.743Z,181.00
2022-12-01T12:30:56.731Z,194.00
2022-12-01T12:31:56.702Z,231.00
2022-12-01T12:32:56.830Z,257.00
2022-12-01T12:33:56.672Z,248.00
2022-12-01T12:34:56.639Z,250.00
2022-12-01T12:35:56.653Z,263.00
2022-12-01T12:36:56.618Z,231.00
2022-12-01T12:37:56.822Z,214.00
2022-12-01T12:38:56.598Z,202.00
2022-12-01T12:39:56.599Z,214.00
2022-12-01T12:40:56.559Z,231.00
2022-12-01T12:41:56.742Z,244.00
2022-12-01T12:42:56.528Z,270.00
2022-12-01T12:43:56.533Z,280.00
2022-12-01T12:44:56.520Z,279.00
2022-12-01T12:45:56.593Z,289.00
2022-12-01T12:46:56.652Z,311.00
2022-12-01T12:47:56.481Z,327.00
2022-12-01T12:49:18.802Z,348.00
2022-12-01T12:49:57.463Z,357.00
2022-12-01T12:50:56.442Z,387.00
2022-12-01T12:51:56.623Z,419.00
2022-12-01T12:52:56.399Z,418.00
2022-12-01T12:53:56.504Z,383.00
2022-12-01T12:54:56.391Z,351.00
2022-12-01T12:55:56.379Z,367.00
2022-12-01T12:56:56.529Z,402.00